createdAt,value
2019-05-30T20:44:39.533Z,17.70
2019-05-30T20:50:25.663Z,17.60
2019-05-30T20:52:56.649Z,17.60
2019-05-30T20:55:26.739Z,17.60
2019-05-30T20:57:56.140Z,17.60
2019-05-30T21:00:32.283Z,17.60
2019-05-30T21:03:04.635Z,17.50
2019-05-30T21:05:37.716Z,17.50
2019-05-30T21:08:08.554Z,17.40
2019-05-30T21:10:39.308Z,17.40
2019-05-30T21:13:09.841Z,17.40
2019-05-30T21:15:43.677Z,17.30
2019-05-30T21:18:13.132Z,17.30
2019-05-30T21:20:44.159Z,17.30
2019-05-30T21:23:13.710Z,17.30
2019-05-30T21:25:43.210Z,17.20
2019-05-30T21:28:12.634Z,17.20
2019-05-30T21:30:43.214Z,17.20
2019-05-30T21:33:12.907Z,17.10
2019-05-30T21:35:43.766Z,17.10
2019-05-30T21:38:13.429Z,17.10
2019-05-30T21:40:42.931Z,17.00
2019-05-30T21:43:12.425Z,17.00
2019-05-30T21:45:42.542Z,17.00
2019-05-30T21:48:12.534Z,16.90
2019-05-30T21:50:44.481Z,16.90
2019-05-30T21:53:13.217Z,16.90
2019-05-30T21:55:43.855Z,16.80
2019-05-30T21:58:13.437Z,16.80
2019-05-30T22:00:48.629Z,16.80
2019-05-30T22:03:19.716Z,16.70
2019-05-30T22:05:49.890Z,16.80
2019-05-30T22:08:20.288Z,16.70
2019-05-30T22:10:49.667Z,16.70
2019-05-30T22:13:19.168Z,16.70
2019-05-30T22:15:49.771Z,16.70
2019-05-30T22:18:19.267Z,16.60
2019-05-30T22:20:49.857Z,16.70
2019-05-30T22:23:22.422Z,16.60
2019-05-30T22:25:52.991Z,16.60
2019-05-30T22:28:22.473Z,16.70
2019-05-30T22:30:52.843Z,16.60
2019-05-30T22:33:23.985Z,16.70
2019-05-30T22:35:53.502Z,16.70
2019-05-30T22:38:24.493Z,16.60
2019-05-30T22:40:54.368Z,16.60
2019-05-30T22:43:25.562Z,16.60
2019-05-30T22:45:56.394Z,16.60
2019-05-30T22:48:26.352Z,16.60
2019-05-30T22:50:56.944Z,16.60
2019-05-30T22:53:28.699Z,16.60
2019-05-30T22:55:58.143Z,16.70
2019-05-30T22:58:36.305Z,16.60
2019-05-30T23:01:08.694Z,16.70
2019-05-30T23:03:38.151Z,16.70
2019-05-30T23:06:07.642Z,16.70
2019-05-30T23:08:37.142Z,16.70
2019-05-30T23:11:06.640Z,16.70
2019-05-30T23:13:40.479Z,16.70
2019-05-30T23:16:07.146Z,16.70
2019-05-30T23:18:36.527Z,16.70
2019-05-30T23:21:06.994Z,16.60
2019-05-30T23:23:36.417Z,16.70
2019-05-30T23:26:06.915Z,16.60
2019-05-30T23:28:36.399Z,16.60
2019-05-30T23:31:05.899Z,16.60
2019-05-30T23:33:35.435Z,16.60
2019-05-30T23:36:05.194Z,16.60
2019-05-30T23:38:34.720Z,16.60
2019-05-30T23:41:04.084Z,16.60
2019-05-30T23:43:34.076Z,16.50
2019-05-30T23:46:03.702Z,16.50
2019-05-30T23:48:33.178Z,16.50
2019-05-30T23:51:02.585Z,16.50
2019-05-30T23:53:32.812Z,16.50
2019-05-30T23:56:02.256Z,16.40
2019-05-30T23:58:33.494Z,16.40
